Time;durP1;ratioP1;P1;durP2;ratioP2;P2;SDS_P1;SDS_P2;PMS_P1;PMS_P2;Temp;Humidity;BMP_temperature;BMP_pressure;BME280_temperature;BME280_humidity;BME280_pressure;Samples;Min_cycle;Max_cycle;Signal;HPM_P1;HPM_P2
2023/08/18 00:00:08;;;;;;;28.50;11.00;;;;;;;29.56;46.32;99169.05;67939;1275;1016325;-62
2023/08/18 00:03:31;;;;;;;24.30;10.20;;;;;;;29.48;46.30;99164.83;67933;1275;1016424;-62
2023/08/18 00:06:33;;;;;;;21.90;9.20;;;;;;;29.34;46.58;99173.27;67908;1275;1017033;-61
2023/08/18 00:09:36;;;;;;;25.30;10.40;;;;;;;29.45;46.48;99172.52;67919;1275;1016603;-62
2023/08/18 00:12:38;;;;;;;23.70;10.30;;;;;;;29.52;46.35;99172.39;67910;1275;1016103;-62
2023/08/18 00:15:40;;;;;;;25.50;11.70;;;;;;;29.46;46.58;99175.55;67943;1275;1016357;-62
2023/08/18 00:18:43;;;;;;;23.40;10.40;;;;;;;29.42;46.53;99176.34;67955;1275;1016258;-62
2023/08/18 00:21:45;;;;;;;25.40;10.30;;;;;;;29.39;46.29;99174.84;67959;1275;1016383;-62
2023/08/18 00:24:48;;;;;;;24.70;10.30;;;;;;;29.26;46.25;99175.95;67904;1275;1015799;-62
2023/08/18 00:27:54;;;;;;;24.10;9.20;;;;;;;29.19;46.29;99177.39;67910;1275;1016483;-62
2023/08/18 00:30:56;;;;;;;26.10;11.10;;;;;;;29.13;46.88;99176.80;67916;1275;1016396;-62
2023/08/18 00:33:59;;;;;;;25.10;9.80;;;;;;;29.12;47.03;99172.98;67937;1275;1016161;-62
2023/08/18 00:37:01;;;;;;;23.80;10.40;;;;;;;29.06;47.18;99170.73;67962;1275;1016338;-62
2023/08/18 00:40:04;;;;;;;24.10;10.80;;;;;;;28.98;47.33;99170.91;67959;1275;1016436;-62
2023/08/18 00:43:06;;;;;;;26.60;12.80;;;;;;;29.06;47.68;99174.88;67901;1275;1017003;-62
2023/08/18 00:46:09;;;;;;;26.20;12.70;;;;;;;29.20;47.15;99177.00;67923;1275;1016589;-62
2023/08/18 00:49:11;;;;;;;29.60;14.10;;;;;;;29.13;47.42;99174.16;67954;1275;1015902;-62
2023/08/18 00:52:13;;;;;;;29.50;14.50;;;;;;;29.10;47.41;99172.43;67961;1275;1016259;-62
2023/08/18 00:55:16;;;;;;;25.10;12.40;;;;;;;29.11;47.56;99172.75;67934;1275;1016279;-62
2023/08/18 00:58:18;;;;;;;24.70;11.90;;;;;;;29.02;47.67;99165.69;67864;1275;1016503;-62
2023/08/18 01:01:21;;;;;;;27.90;12.30;;;;;;;28.96;47.85;99161.35;67932;1275;1015901;-62
2023/08/18 01:04:23;;;;;;;24.70;11.50;;;;;;;28.98;47.92;99162.56;67943;1275;1016456;-62
2023/08/18 01:07:25;;;;;;;26.50;11.50;;;;;;;28.97;48.07;99159.57;67935;1275;1016428;-62
2023/08/18 01:10:28;;;;;;;26.50;11.40;;;;;;;28.92;48.12;99151.14;67942;1275;1017176;-62
2023/08/18 01:13:31;;;;;;;25.60;11.50;;;;;;;28.91;47.96;99146.23;67909;1275;1017131;-62
2023/08/18 01:16:33;;;;;;;25.70;10.90;;;;;;;28.96;47.88;99143.28;67925;1275;1018526;-62
2023/08/18 01:19:36;;;;;;;23.80;11.30;;;;;;;29.00;47.59;99142.66;67943;1275;1016420;-62
2023/08/18 01:22:38;;;;;;;26.50;12.20;;;;;;;28.95;47.71;99133.11;67881;1275;1016427;-62
2023/08/18 01:25:41;;;;;;;24.40;10.20;;;;;;;28.84;47.76;99137.33;67906;1275;1016436;-62
2023/08/18 01:28:46;;;;;;;25.90;11.20;;;;;;;28.71;47.94;99132.41;67949;1275;1016507;-62
2023/08/18 01:31:48;;;;;;;23.30;11.20;;;;;;;28.61;48.03;99135.97;67922;1275;1016484;-62
2023/08/18 01:34:50;;;;;;;26.50;11.60;;;;;;;28.69;47.74;99138.86;67898;1275;1016306;-62
2023/08/18 01:37:53;;;;;;;23.60;10.00;;;;;;;28.74;47.53;99149.27;67911;1275;1016043;-62
2023/08/18 01:40:55;;;;;;;22.60;10.30;;;;;;;28.57;47.54;99148.20;67915;1275;1016086;-62
2023/08/18 01:43:58;;;;;;;22.60;9.90;;;;;;;28.46;47.84;99146.91;67929;1275;1016260;-62
2023/08/18 01:47:00;;;;;;;24.20;10.50;;;;;;;28.33;48.04;99147.35;67908;1275;1015953;-62
2023/08/18 01:50:03;;;;;;;25.40;10.60;;;;;;;28.27;48.18;99151.77;67915;1275;1016210;-62
2023/08/18 01:53:05;;;;;;;26.00;11.40;;;;;;;28.30;48.14;99155.84;67927;1275;1016046;-61
2023/08/18 01:56:08;;;;;;;26.20;10.30;;;;;;;28.15;48.43;99157.27;67958;1275;1016234;-61
2023/08/18 01:59:10;;;;;;;24.70;11.30;;;;;;;27.90;48.74;99157.81;67883;1275;1016256;-61
2023/08/18 02:02:13;;;;;;;24.20;10.90;;;;;;;27.75;49.00;99159.30;67917;1275;1017398;-62
2023/08/18 02:05:15;;;;;;;22.70;10.60;;;;;;;27.80;48.55;99157.75;67916;1275;1016613;-62
2023/08/18 02:08:18;;;;;;;24.90;10.50;;;;;;;27.86;48.51;99154.70;67950;1275;1016299;-62
2023/08/18 02:11:20;;;;;;;23.60;10.00;;;;;;;27.96;48.60;99156.45;67921;1275;1016399;-62
2023/08/18 02:14:22;;;;;;;23.40;10.90;;;;;;;27.96;48.77;99152.67;67900;1275;1016474;-62
2023/08/18 02:17:29;;;;;;;24.00;11.20;;;;;;;28.07;48.51;99155.95;67899;1275;1016474;-61
2023/08/18 02:20:31;;;;;;;23.30;11.60;;;;;;;28.03;48.56;99156.29;67934;1275;1016279;-62
2023/08/18 02:23:34;;;;;;;25.20;11.70;;;;;;;27.88;48.92;99158.14;67965;1275;1015886;-62
2023/08/18 02:26:36;;;;;;;25.40;11.60;;;;;;;27.92;48.93;99158.36;67934;1275;1016441;-62
2023/08/18 02:29:39;;;;;;;24.80;11.30;;;;;;;28.02;48.62;99154.23;67906;1275;1016493;-62
2023/08/18 02:32:41;;;;;;;24.50;11.80;;;;;;;28.19;48.36;99156.55;67892;1275;1016859;-62
2023/08/18 02:35:43;;;;;;;26.10;11.50;;;;;;;28.20;48.49;99166.34;67922;1275;1016500;-62
2023/08/18 02:38:46;;;;;;;27.40;12.50;;;;;;;28.29;48.02;99175.01;67908;1275;1016823;-62
2023/08/18 02:41:51;;;;;;;26.90;12.00;;;;;;;28.23;48.11;99174.77;67963;1275;1016482;-62
2023/08/18 02:44:54;;;;;;;24.70;11.60;;;;;;;28.15;48.52;99179.38;67922;1275;1015946;-62
2023/08/18 02:47:57;;;;;;;24.00;11.70;;;;;;;28.09;48.71;99179.36;67863;1275;1016328;-62
2023/08/18 02:51:00;;;;;;;27.10;12.60;;;;;;;28.19;48.62;99175.45;67893;1275;1016479;-62
2023/08/18 02:54:02;;;;;;;25.50;13.00;;;;;;;28.36;48.51;99176.34;67941;1275;1018170;-62
2023/08/18 02:57:05;;;;;;;28.50;13.80;;;;;;;28.38;48.61;99178.73;67949;1275;1016453;-62
2023/08/18 03:00:08;;;;;;;26.70;13.00;;;;;;;28.30;48.65;99175.06;67888;1275;1016474;-62
2023/08/18 03:03:10;;;;;;;24.80;12.70;;;;;;;28.39;48.42;99164.65;67916;1275;1016381;-62
2023/08/18 03:06:13;;;;;;;28.20;13.80;;;;;;;28.29;48.90;99165.14;67945;1275;1016407;-62
2023/08/18 03:09:16;;;;;;;25.60;14.10;;;;;;;28.34;48.99;99172.96;67922;1275;1016311;-62
2023/08/18 03:12:19;;;;;;;29.30;14.60;;;;;;;28.37;48.66;99158.86;67877;1275;1016266;-62
2023/08/18 03:15:21;;;;;;;33.20;16.50;;;;;;;28.35;48.78;99168.28;67874;1275;1016575;-62
2023/08/18 03:18:24;;;;;;;30.70;16.10;;;;;;;28.20;49.19;99173.64;67940;1275;1016161;-62
2023/08/18 03:21:26;;;;;;;30.00;16.00;;;;;;;28.25;48.85;99169.81;67903;1275;1018046;-62
2023/08/18 03:24:29;;;;;;;28.10;15.90;;;;;;;28.24;49.11;99163.34;67922;1275;1016994;-62
2023/08/18 03:27:31;;;;;;;29.70;16.00;;;;;;;28.31;49.22;99160.80;67965;1275;1016559;-62
2023/08/18 03:30:33;;;;;;;29.50;15.60;;;;;;;28.23;49.53;99156.61;67962;1275;1019556;-62
2023/08/18 03:33:36;;;;;;;29.20;16.70;;;;;;;28.15;49.85;99153.84;67935;1275;1016519;-62
2023/08/18 03:36:38;;;;;;;29.10;15.70;;;;;;;28.19;49.68;99151.90;67922;1275;1016831;-62
2023/08/18 03:39:41;;;;;;;29.40;15.50;;;;;;;28.28;49.46;99155.27;67919;1275;1016414;-62
2023/08/18 03:42:43;;;;;;;27.90;15.80;;;;;;;28.37;49.51;99152.27;67892;1275;1016469;-62
2023/08/18 03:45:46;;;;;;;28.30;15.30;;;;;;;28.49;49.37;99141.98;67938;1275;1016203;-61
2023/08/18 03:48:48;;;;;;;29.80;16.10;;;;;;;28.62;49.36;99134.94;67922;1275;1018919;-61
2023/08/18 03:51:50;;;;;;;29.80;15.20;;;;;;;28.74;49.30;99129.09;67916;1275;1016609;-62
2023/08/18 03:54:53;;;;;;;28.90;15.30;;;;;;;28.83;49.11;99129.52;67892;1275;1016980;-62
2023/08/18 03:57:55;;;;;;;26.90;14.90;;;;;;;28.79;48.96;99128.10;67955;1275;1016394;-62
2023/08/18 04:00:58;;;;;;;29.50;15.40;;;;;;;28.64;49.19;99131.69;67961;1275;1016443;-62
2023/08/18 04:04:00;;;;;;;28.00;14.30;;;;;;;28.63;49.17;99132.70;67941;1275;1016223;-61
2023/08/18 04:07:02;;;;;;;27.30;14.10;;;;;;;28.50;49.62;99135.27;67909;1275;1016502;-62
2023/08/18 04:10:05;;;;;;;28.90;15.20;;;;;;;28.53;49.72;99132.41;67901;1275;1015811;-61
2023/08/18 04:13:07;;;;;;;30.20;15.70;;;;;;;28.74;49.63;99130.29;67956;1275;1016451;-62
2023/08/18 04:16:10;;;;;;;31.10;16.50;;;;;;;28.94;49.31;99131.24;67954;1275;1016446;-62
2023/08/18 04:19:12;;;;;;;31.00;15.80;;;;;;;29.11;49.07;99127.73;67958;1275;1017179;-62
2023/08/18 04:22:15;;;;;;;29.60;14.70;;;;;;;29.33;48.68;99125.89;67933;1275;1016359;-61
2023/08/18 04:25:17;;;;;;;29.30;14.90;;;;;;;29.48;48.61;99130.33;67929;1275;1016516;-62
2023/08/18 04:28:20;;;;;;;30.40;15.40;;;;;;;29.67;48.56;99132.96;67938;1275;1016411;-61
2023/08/18 04:31:23;;;;;;;28.90;14.80;;;;;;;29.82;48.01;99134.04;67929;1275;1016377;-61
2023/08/18 04:34:25;;;;;;;27.00;14.40;;;;;;;29.88;48.08;99138.56;67899;1275;1016487;-61
2023/08/18 04:37:28;;;;;;;29.10;14.70;;;;;;;29.92;48.20;99138.27;67852;1275;1016376;-62
2023/08/18 04:40:30;;;;;;;25.50;14.00;;;;;;;29.87;48.33;99139.64;67969;1275;1016459;-62
2023/08/18 04:43:33;;;;;;;27.00;13.80;;;;;;;29.70;48.63;99140.52;67955;1275;1017163;-62
2023/08/18 04:46:36;;;;;;;27.30;14.50;;;;;;;29.71;48.67;99141.94;67919;1275;1016904;-61
2023/08/18 04:49:38;;;;;;;25.70;14.00;;;;;;;29.95;48.17;99138.81;67928;1275;1016522;-62
2023/08/18 04:52:41;;;;;;;25.60;14.30;;;;;;;30.01;48.25;99134.11;67972;1275;1018810;-62
2023/08/18 04:55:43;;;;;;;27.50;14.70;;;;;;;30.38;47.73;99130.77;67985;1275;1016275;-62
2023/08/18 04:58:45;;;;;;;28.10;15.30;;;;;;;30.51;47.75;99132.77;67918;1275;1016096;-62
2023/08/18 05:01:51;;;;;;;29.60;15.00;;;;;;;30.72;47.17;99138.03;67925;1275;1016251;-62
2023/08/18 05:04:54;;;;;;;26.40;14.80;;;;;;;30.96;46.62;99144.52;67930;1275;1015855;-62
2023/08/18 05:07:56;;;;;;;26.60;15.10;;;;;;;31.12;46.61;99139.88;67943;1275;1019033;-62
2023/08/18 05:10:59;;;;;;;29.00;15.70;;;;;;;31.17;46.83;99138.84;67929;1275;1016265;-62
2023/08/18 05:14:01;;;;;;;26.90;15.00;;;;;;;31.15;47.03;99141.86;67979;1275;1016282;-62
2023/08/18 05:17:03;;;;;;;28.90;14.50;;;;;;;31.44;46.49;99146.58;67960;1275;1016544;-62
2023/08/18 05:20:06;;;;;;;26.10;15.10;;;;;;;31.45;46.36;99151.45;67887;1275;1016206;-62
2023/08/18 05:23:09;;;;;;;26.80;14.60;;;;;;;31.26;46.53;99158.70;67913;1275;1016480;-62
2023/08/18 05:26:12;;;;;;;29.10;14.40;;;;;;;31.18;46.59;99162.34;67963;1275;1016524;-62
2023/08/18 05:29:16;;;;;;;27.00;13.90;;;;;;;31.16;46.85;99159.82;67931;1275;1016035;-62
2023/08/18 05:32:18;;;;;;;25.60;12.40;;;;;;;31.35;46.62;99155.23;67938;1275;1016170;-62
2023/08/18 05:35:21;;;;;;;24.40;13.20;;;;;;;31.46;46.82;99153.70;67920;1275;1016234;-61
2023/08/18 05:38:23;;;;;;;22.80;11.60;;;;;;;31.87;46.04;99157.71;67953;1275;1016355;-62
2023/08/18 05:41:26;;;;;;;23.90;11.10;;;;;;;32.01;45.46;99160.14;67955;1275;1016263;-62
2023/08/18 05:44:28;;;;;;;26.00;12.00;;;;;;;32.21;45.48;99155.90;67827;1275;1016712;-62
2023/08/18 05:47:30;;;;;;;24.60;11.40;;;;;;;32.40;45.35;99152.09;67901;1275;1016363;-62
2023/08/18 05:50:33;;;;;;;25.60;11.60;;;;;;;32.41;45.17;99146.05;67994;1275;1016510;-62
2023/08/18 05:53:36;;;;;;;24.30;11.60;;;;;;;32.71;44.88;99149.21;67983;1275;1016588;-62
2023/08/18 05:56:39;;;;;;;25.40;12.20;;;;;;;32.96;44.31;99148.25;67898;1275;1016412;-61
2023/08/18 05:59:41;;;;;;;23.90;11.80;;;;;;;33.06;44.05;99145.12;67949;1275;1019040;-62
2023/08/18 06:02:44;;;;;;;25.20;11.90;;;;;;;32.92;43.82;99141.74;67954;1275;1016386;-62
2023/08/18 06:05:46;;;;;;;23.50;11.40;;;;;;;32.86;44.20;99135.98;67940;1275;1016475;-62
2023/08/18 06:08:49;;;;;;;24.20;12.30;;;;;;;32.84;43.58;99135.93;67914;1275;1016131;-62
2023/08/18 06:11:51;;;;;;;23.80;11.80;;;;;;;32.63;44.07;99129.84;67968;1275;1016315;-62
2023/08/18 06:14:53;;;;;;;24.40;11.60;;;;;;;32.59;44.22;99125.86;67941;1275;1016530;-62
2023/08/18 06:17:56;;;;;;;25.50;12.70;;;;;;;32.88;43.96;99125.55;67930;1275;1016709;-62
2023/08/18 06:20:58;;;;;;;22.20;10.90;;;;;;;33.46;43.69;99119.77;67952;1275;1016080;-62
2023/08/18 06:24:01;;;;;;;21.00;9.60;;;;;;;33.97;43.25;99116.20;67931;1275;1016833;-62
2023/08/18 06:27:03;;;;;;;22.30;9.40;;;;;;;34.28;41.86;99111.70;67993;1275;1016832;-62
2023/08/18 06:30:06;;;;;;;20.00;8.50;;;;;;;34.46;41.42;99113.42;67971;1275;1016377;-62
2023/08/18 06:33:08;;;;;;;19.60;8.20;;;;;;;34.70;41.08;99109.90;67992;1275;1016590;-62
2023/08/18 06:36:13;;;;;;;20.30;7.80;;;;;;;34.97;40.60;99108.27;67932;1275;1016254;-62
2023/08/18 06:39:16;;;;;;;20.00;7.70;;;;;;;35.14;39.77;99111.66;67935;1272;1016044;-61
2023/08/18 06:42:18;;;;;;;19.20;7.70;;;;;;;35.16;39.41;99109.48;67940;1275;1016436;-60
2023/08/18 06:45:20;;;;;;;24.40;7.40;;;;;;;35.18;40.09;99113.73;67937;1275;1016523;-61
2023/08/18 06:48:23;;;;;;;22.40;7.20;;;;;;;35.59;39.77;99114.52;67907;1275;1017216;-61
2023/08/18 06:51:25;;;;;;;20.20;7.80;;;;;;;35.85;38.84;99123.81;67911;1275;1016944;-61
2023/08/18 06:54:28;;;;;;;20.80;7.30;;;;;;;36.14;39.02;99125.14;67962;1275;1016392;-61
2023/08/18 06:57:30;;;;;;;19.40;7.30;;;;;;;36.49;38.60;99128.48;67970;1275;1016357;-61
2023/08/18 07:00:33;;;;;;;21.30;7.90;;;;;;;37.06;38.27;99129.96;67973;1275;1017130;-61
2023/08/18 07:03:35;;;;;;;20.50;7.80;;;;;;;37.53;37.68;99130.56;67985;1275;1016393;-61
2023/08/18 07:06:37;;;;;;;19.20;7.00;;;;;;;37.67;36.61;99133.10;67973;1275;1016432;-61
2023/08/18 07:09:40;;;;;;;20.30;7.50;;;;;;;37.45;36.41;99126.67;67998;1275;1016472;-61
2023/08/18 07:12:43;;;;;;;22.60;8.00;;;;;;;37.24;36.43;99127.33;68029;1275;1016973;-61
2023/08/18 07:15:46;;;;;;;19.30;7.20;;;;;;;37.22;36.79;99130.83;67955;1275;1016360;-60
2023/08/18 07:18:48;;;;;;;20.20;8.50;;;;;;;37.61;36.80;99127.92;68017;1275;1016718;-61
2023/08/18 07:21:51;;;;;;;20.10;7.40;;;;;;;38.01;36.01;99126.52;68049;1275;1016199;-61
2023/08/18 07:24:53;;;;;;;21.30;7.80;;;;;;;38.00;35.49;99123.16;67997;1275;1016179;-60
2023/08/18 07:27:55;;;;;;;21.10;7.90;;;;;;;38.13;35.41;99127.94;67985;1275;1016538;-61
2023/08/18 07:30:58;;;;;;;22.30;7.70;;;;;;;38.47;35.43;99128.07;67983;1275;1016235;-61
2023/08/18 07:34:00;;;;;;;21.30;8.00;;;;;;;38.77;35.33;99130.79;67979;1275;1017058;-61
2023/08/18 07:37:03;;;;;;;19.90;7.40;;;;;;;39.14;34.61;99130.38;68006;1275;1016388;-61
2023/08/18 07:40:09;;;;;;;20.90;8.50;;;;;;;39.47;34.16;99127.38;67970;1275;1016485;-60
2023/08/18 07:43:11;;;;;;;20.70;8.60;;;;;;;39.72;33.94;99128.95;68004;1275;1018281;-61
2023/08/18 07:46:14;;;;;;;20.80;8.60;;;;;;;39.43;34.26;99133.20;67904;1275;1016016;-61
2023/08/18 07:49:16;;;;;;;18.60;7.60;;;;;;;39.39;34.09;99134.41;67973;1275;1016391;-61
2023/08/18 07:52:19;;;;;;;21.10;8.80;;;;;;;39.39;34.16;99141.44;68018;1275;1016872;-60
2023/08/18 07:55:22;;;;;;;23.10;8.70;;;;;;;39.59;33.93;99142.59;68034;1274;1016204;-61
2023/08/18 07:58:24;;;;;;;19.50;8.10;;;;;;;39.87;33.77;99142.67;67994;1275;1016351;-61
2023/08/18 08:01:27;;;;;;;18.80;7.70;;;;;;;40.28;33.05;99144.13;68022;1275;1015976;-61
2023/08/18 08:04:30;;;;;;;21.10;8.30;;;;;;;40.46;32.60;99141.23;68037;1275;1016559;-61
2023/08/18 08:07:33;;;;;;;20.50;8.70;;;;;;;40.38;32.54;99132.64;68007;1275;1016461;-59
2023/08/18 08:10:36;;;;;;;20.60;8.60;;;;;;;40.49;32.20;99131.63;68010;1275;1015962;-59
2023/08/18 08:13:38;;;;;;;18.90;8.00;;;;;;;40.35;31.95;99127.95;68004;1275;1019614;-58
2023/08/18 08:16:40;;;;;;;21.80;8.80;;;;;;;40.03;31.95;99129.01;67988;1275;1016481;-59
2023/08/18 08:19:43;;;;;;;22.90;8.80;;;;;;;40.07;32.05;99128.89;68012;1275;1015769;-60
2023/08/18 08:22:46;;;;;;;20.30;8.40;;;;;;;40.37;32.13;99130.79;68001;1275;1016454;-59
2023/08/18 08:25:48;;;;;;;24.90;8.50;;;;;;;40.69;31.89;99131.67;67861;1269;1016954;-59
2023/08/18 08:28:51;;;;;;;19.80;8.20;;;;;;;40.99;31.91;99133.77;67891;1272;1016362;-59
2023/08/18 08:31:53;;;;;;;21.70;8.70;;;;;;;41.34;31.63;99135.23;67974;1275;1016475;-60
2023/08/18 08:34:55;;;;;;;20.70;8.60;;;;;;;41.41;31.06;99136.48;67951;1253;1016708;-58
2023/08/18 08:37:58;;;;;;;21.50;8.60;;;;;;;41.24;31.28;99141.10;67909;1269;1016356;-60
2023/08/18 08:41:00;;;;;;;20.70;8.20;;;;;;;41.29;30.70;99137.20;67878;1269;1016216;-59
2023/08/18 08:44:02;;;;;;;23.70;8.60;;;;;;;41.45;31.02;99131.63;67917;1271;1016459;-59
2023/08/18 08:47:05;;;;;;;19.90;8.10;;;;;;;41.28;30.35;99128.36;67955;1275;1016430;-59
2023/08/18 08:50:07;;;;;;;22.00;8.70;;;;;;;40.96;31.26;99128.73;67949;1275;1016425;-59
2023/08/18 08:53:09;;;;;;;23.00;8.50;;;;;;;41.24;31.07;99125.35;67985;1274;1016592;-60
2023/08/18 08:56:12;;;;;;;20.40;8.40;;;;;;;41.43;31.19;99130.10;67921;1275;1016291;-59
2023/08/18 08:59:14;;;;;;;21.50;8.20;;;;;;;41.70;30.75;99126.34;67916;1275;1016046;-59
2023/08/18 09:02:17;;;;;;;21.60;8.60;;;;;;;41.73;31.05;99129.30;67892;1275;1016588;-60
2023/08/18 09:05:20;;;;;;;22.20;8.50;;;;;;;41.90;30.85;99129.88;67927;1275;1015697;-59
2023/08/18 09:08:23;;;;;;;20.90;8.60;;;;;;;42.05;30.85;99127.77;67924;1275;1008019;-60
2023/08/18 09:11:25;;;;;;;22.70;8.40;;;;;;;42.45;30.50;99131.08;67965;1275;1007851;-59
2023/08/18 09:14:28;;;;;;;21.20;8.50;;;;;;;42.67;29.69;99129.17;67953;1275;1007462;-59
2023/08/18 09:17:30;;;;;;;20.20;7.90;;;;;;;42.37;29.95;99123.73;67881;1275;1007520;-59
2023/08/18 09:20:33;;;;;;;20.70;8.50;;;;;;;42.34;30.06;99127.96;67835;1275;1007851;-59
2023/08/18 09:23:35;;;;;;;21.20;8.60;;;;;;;42.48;29.84;99128.42;68510;1275;1007851;-59
2023/08/18 09:26:37;;;;;;;22.20;9.10;;;;;;;42.56;29.91;99126.65;67957;1275;1007821;-59
2023/08/18 09:29:40;;;;;;;21.90;9.10;;;;;;;42.65;30.01;99128.42;67951;1275;1007820;-58
2023/08/18 09:32:42;;;;;;;22.10;9.10;;;;;;;42.59;29.83;99124.09;67951;1275;1007856;-59
2023/08/18 09:35:44;;;;;;;22.70;9.00;;;;;;;42.29;29.60;99124.85;67881;1275;1016001;-59
2023/08/18 09:38:47;;;;;;;25.40;8.60;;;;;;;42.07;30.28;99125.55;67947;1275;1007550;-59
2023/08/18 09:41:50;;;;;;;21.90;8.90;;;;;;;41.96;29.96;99124.19;67982;1275;1016297;-58
2023/08/18 09:44:53;;;;;;;25.60;9.20;;;;;;;42.16;30.16;99122.02;67945;1275;1007726;-59
2023/08/18 09:47:55;;;;;;;22.80;8.60;;;;;;;42.69;29.86;99124.16;67940;1275;1007529;-59
2023/08/18 09:50:58;;;;;;;22.30;9.40;;;;;;;42.85;29.63;99122.61;67948;1275;1007812;-59
2023/08/18 09:54:00;;;;;;;21.60;9.00;;;;;;;42.65;29.64;99123.85;67975;1275;1007705;-58
2023/08/18 09:57:02;;;;;;;21.70;9.00;;;;;;;42.52;29.54;99128.30;67918;1275;1007615;-58
2023/08/18 10:00:05;;;;;;;18.50;8.40;;;;;;;42.40;29.45;99130.02;67803;1275;1016360;-59
2023/08/18 10:03:08;;;;;;;23.00;9.60;;;;;;;42.19;29.38;99120.95;67978;1275;1016701;-58
2023/08/18 10:06:11;;;;;;;25.10;10.00;;;;;;;41.95;29.22;99117.15;67967;1275;1016333;-59
2023/08/18 10:09:13;;;;;;;23.20;9.80;;;;;;;41.96;29.83;99120.02;68003;1275;1016050;-59
2023/08/18 10:12:15;;;;;;;24.00;9.70;;;;;;;42.08;29.66;99112.20;68040;1275;1014903;-59
2023/08/18 10:15:18;;;;;;;23.40;9.40;;;;;;;42.26;29.49;99113.31;67990;1275;1016072;-59
2023/08/18 10:18:21;;;;;;;23.50;9.60;;;;;;;42.35;29.03;99105.73;68069;1275;1007752;-59
2023/08/18 10:21:24;;;;;;;23.00;10.20;;;;;;;42.36;29.58;99107.32;68080;1275;1007074;-59
2023/08/18 10:24:26;;;;;;;22.70;9.20;;;;;;;42.70;29.84;99099.23;68043;1275;1007410;-58
2023/08/18 10:27:29;;;;;;;20.90;9.20;;;;;;;43.07;29.84;99102.94;68049;1275;1016461;-60
2023/08/18 10:30:31;;;;;;;22.10;9.50;;;;;;;43.11;28.97;99099.84;68009;1275;1007168;-58
2023/08/18 10:33:35;;;;;;;27.40;9.70;;;;;;;42.78;29.28;99097.73;67995;1275;1015565;-59
2023/08/18 10:36:37;;;;;;;21.60;9.40;;;;;;;43.02;29.52;99091.38;67996;1275;1007811;-60
2023/08/18 10:39:40;;;;;;;24.50;9.90;;;;;;;42.71;28.99;99083.26;67997;1275;1007777;-58
2023/08/18 10:42:42;;;;;;;20.90;9.50;;;;;;;42.16;29.60;99075.30;68085;1275;1007780;-59
2023/08/18 10:45:45;;;;;;;22.00;9.80;;;;;;;42.40;30.15;99076.68;68073;1275;1007650;-59
2023/08/18 10:48:48;;;;;;;23.40;9.60;;;;;;;42.64;30.21;99073.05;67908;1275;1007621;-59
2023/08/18 10:51:51;;;;;;;22.80;9.80;;;;;;;43.24;29.84;99068.77;67960;1275;1015536;-59
2023/08/18 10:54:54;;;;;;;23.90;10.10;;;;;;;43.69;29.33;99064.43;68001;1275;1007569;-59
2023/08/18 10:57:56;;;;;;;21.90;9.30;;;;;;;44.22;29.11;99062.98;68077;1275;1007716;-60
2023/08/18 11:00:59;;;;;;;21.40;9.30;;;;;;;44.67;28.26;99064.33;68050;1275;1007789;-59
2023/08/18 11:04:01;;;;;;;20.80;9.20;;;;;;;45.04;28.27;99070.04;68029;1275;1015692;-60
2023/08/18 11:07:04;;;;;;;24.10;9.30;;;;;;;45.20;27.91;99073.06;68009;1275;1007423;-60
2023/08/18 11:10:07;;;;;;;20.70;9.30;;;;;;;45.10;27.88;99075.27;68027;1275;1007874;-59
2023/08/18 11:13:09;;;;;;;19.90;9.60;;;;;;;45.03;28.00;99073.06;68030;1275;1007397;-59
2023/08/18 11:16:11;;;;;;;20.70;9.50;;;;;;;45.00;28.04;99070.76;67997;1260;1007633;-59
2023/08/18 11:19:14;;;;;;;20.30;9.60;;;;;;;44.75;28.08;99074.80;68055;1275;1009214;-59
2023/08/18 11:22:18;;;;;;;23.90;9.70;;;;;;;44.48;27.77;99068.36;68093;1275;1007716;-59
2023/08/18 11:25:21;;;;;;;20.90;9.80;;;;;;;44.05;28.05;99072.52;68000;1275;1007799;-59
2023/08/18 11:28:24;;;;;;;21.80;10.00;;;;;;;43.96;28.62;99068.69;68056;1275;1016036;-59
2023/08/18 11:31:26;;;;;;;21.80;10.10;;;;;;;44.18;28.36;99073.98;68024;1275;1007747;-59
2023/08/18 11:34:29;;;;;;;22.20;10.90;;;;;;;44.15;28.20;99074.80;68076;1275;1007636;-59
2023/08/18 11:37:31;;;;;;;22.80;10.80;;;;;;;44.35;28.22;99070.70;68066;1275;1007837;-59
2023/08/18 11:40:34;;;;;;;21.90;9.40;;;;;;;44.56;28.03;99063.80;68044;1275;1009631;-60
2023/08/18 11:43:36;;;;;;;22.10;10.30;;;;;;;44.29;27.89;99064.92;67963;1275;1007823;-60
2023/08/18 11:46:38;;;;;;;21.80;10.10;;;;;;;43.90;28.42;99062.23;67997;1275;1007636;-59
2023/08/18 11:49:41;;;;;;;21.70;10.40;;;;;;;44.29;28.26;99058.61;68017;1275;1008341;-60
2023/08/18 11:52:43;;;;;;;21.50;9.60;;;;;;;44.95;27.73;99056.77;68089;1275;1007737;-59
2023/08/18 11:55:46;;;;;;;22.20;10.90;;;;;;;45.26;27.44;99051.48;68058;1275;1008058;-60
2023/08/18 11:58:48;;;;;;;19.30;9.50;;;;;;;45.24;27.07;99052.23;67985;1275;1007429;-59
2023/08/18 12:01:50;;;;;;;21.70;9.10;;;;;;;45.27;27.16;99049.55;67993;1275;1007852;-60
2023/08/18 12:04:53;;;;;;;24.30;9.50;;;;;;;45.72;27.08;99045.43;68033;1275;1007835;-59
2023/08/18 12:07:55;;;;;;;22.40;9.60;;;;;;;45.95;26.59;99043.35;68019;1275;1007752;-59
2023/08/18 12:10:59;;;;;;;20.40;9.30;;;;;;;46.07;26.32;99045.88;68078;1275;1007653;-59
2023/08/18 12:14:03;;;;;;;22.40;9.80;;;;;;;45.93;25.69;99039.60;68012;1275;1009481;-58
2023/08/18 12:17:06;;;;;;;19.10;8.70;;;;;;;45.02;25.86;99038.70;68026;1275;1007773;-60
2023/08/18 12:20:08;;;;;;;19.70;8.20;;;;;;;43.04;27.85;99055.42;68006;1275;1015851;-59
2023/08/18 12:23:11;;;;;;;19.80;8.30;;;;;;;40.65;30.79;99075.41;67971;1275;1016342;-59
2023/08/18 12:26:14;;;;;;;21.10;8.10;;;;;;;39.85;31.74;99079.00;67991;1275;1016459;-59
2023/08/18 12:29:17;;;;;;;18.80;8.10;;;;;;;39.35;32.43;99080.38;67966;1275;1016699;-58
2023/08/18 12:32:19;;;;;;;19.00;8.00;;;;;;;38.82;32.46;99080.89;68004;1275;1018078;-59
2023/08/18 12:35:21;;;;;;;19.90;8.50;;;;;;;38.31;33.49;99084.46;68014;1275;1016743;-59
2023/08/18 12:38:24;;;;;;;18.40;7.70;;;;;;;38.36;33.65;99081.09;68036;1275;1016150;-59
2023/08/18 12:41:27;;;;;;;18.30;8.30;;;;;;;38.58;33.79;99079.88;68007;1275;1016428;-59
2023/08/18 12:44:29;;;;;;;19.50;7.80;;;;;;;38.36;33.51;99076.89;67962;1275;1016557;-59
2023/08/18 12:47:31;;;;;;;18.80;8.30;;;;;;;38.11;33.54;99066.99;67949;1275;1016464;-59
2023/08/18 12:50:34;;;;;;;19.80;8.00;;;;;;;37.63;34.22;99065.23;67950;1275;1018743;-58
2023/08/18 12:53:36;;;;;;;20.00;8.00;;;;;;;37.18;34.66;99065.48;68029;1275;1016971;-58
2023/08/18 12:56:39;;;;;;;19.40;8.70;;;;;;;36.73;35.11;99056.33;68048;1275;1018992;-59
2023/08/18 12:59:41;;;;;;;19.60;8.20;;;;;;;36.24;35.46;99061.11;68000;1275;1016214;-59
2023/08/18 13:02:44;;;;;;;21.80;8.90;;;;;;;35.86;35.97;99075.13;67929;1275;1016339;-58
2023/08/18 13:05:46;;;;;;;18.60;7.80;;;;;;;35.55;36.54;99090.42;68033;1275;1016800;-59
2023/08/18 13:08:49;;;;;;;19.70;8.30;;;;;;;35.12;37.24;99101.19;68052;1275;1016195;-60
2023/08/18 13:11:51;;;;;;;21.50;8.60;;;;;;;34.70;38.42;99117.74;68025;1275;1016256;-60
2023/08/18 13:14:53;;;;;;;19.70;7.70;;;;;;;33.98;39.77;99153.14;67997;1275;1016223;-59
2023/08/18 13:17:56;;;;;;;18.60;6.10;;;;;;;32.80;40.51;99159.48;67962;1274;1019370;-58
2023/08/18 13:20:58;;;;;;;19.40;6.80;;;;;;;31.74;41.64;99146.04;68053;1275;1016065;-60
2023/08/18 13:24:03;;;;;;;17.60;6.30;;;;;;;31.47;41.83;99153.35;68042;1275;1016149;-60
2023/08/18 13:27:07;;;;;;;16.60;6.30;;;;;;;31.24;42.09;99151.36;67978;1275;1016638;-59
2023/08/18 13:30:09;;;;;;;16.40;6.90;;;;;;;31.31;42.36;99153.44;67922;1275;1016314;-59
2023/08/18 13:33:12;;;;;;;18.20;7.40;;;;;;;31.35;42.37;99145.58;67948;1275;1016558;-59
2023/08/18 13:36:14;;;;;;;20.30;7.90;;;;;;;31.55;42.30;99131.45;68017;1275;1016387;-59
2023/08/18 13:39:19;;;;;;;19.90;7.30;;;;;;;31.76;41.59;99126.29;68056;1275;1016454;-59
2023/08/18 13:42:21;;;;;;;18.80;7.60;;;;;;;31.89;41.73;99117.80;68040;1275;1016371;-59